Time;durP1;ratioP1;P1;durP2;ratioP2;P2;SDS_P1;SDS_P2;PMS_P1;PMS_P2;Temp;Humidity;BMP_temperature;BMP_pressure;BME280_temperature;BME280_humidity;BME280_pressure;Samples;Min_cycle;Max_cycle;Signal;HPM_P1;HPM_P2
2023/12/11 00:01:33;;;;;;;0.30;0.20;;;;;;;10.61;100.00;99025.19;5021819;28;20550;-54
2023/12/11 00:04:00;;;;;;;0.30;0.20;;;;;;;10.65;100.00;99026.75;5035671;28;20452;-54
2023/12/11 00:06:26;;;;;;;0.30;0.20;;;;;;;10.65;100.00;99030.28;5035493;28;20452;-54
2023/12/11 00:08:53;;;;;;;0.30;0.20;;;;;;;10.59;100.00;99040.34;5036680;28;20451;-54
2023/12/11 00:11:20;;;;;;;0.30;0.20;;;;;;;10.54;100.00;99042.34;5039250;28;20499;-54
2023/12/11 00:13:47;;;;;;;0.30;0.20;;;;;;;10.56;100.00;99035.19;5039800;28;20447;-54
2023/12/11 00:16:16;;;;;;;0.30;0.20;;;;;;;10.59;100.00;99035.03;5039522;28;20448;-54
2023/12/11 00:18:43;;;;;;;0.30;0.20;;;;;;;10.54;100.00;99037.91;5039780;28;20455;-54
2023/12/11 00:21:10;;;;;;;0.30;0.20;;;;;;;10.58;100.00;99036.84;5039119;28;20476;-54
2023/12/11 00:23:37;;;;;;;0.30;0.20;;;;;;;10.53;100.00;99045.94;5038169;28;20497;-54
2023/12/11 00:26:03;;;;;;;0.30;0.20;;;;;;;10.54;100.00;99052.97;5019303;28;20459;-54
2023/12/11 00:28:30;;;;;;;0.30;0.20;;;;;;;10.55;100.00;99047.63;5036525;28;20471;-54
2023/12/11 00:30:56;;;;;;;0.30;0.20;;;;;;;10.58;100.00;99059.91;5038355;28;20491;-54
2023/12/11 00:33:23;;;;;;;0.30;0.20;;;;;;;10.55;100.00;99057.38;5038913;28;20509;-54
2023/12/11 00:35:50;;;;;;;0.30;0.20;;;;;;;10.63;100.00;99063.19;5038650;28;20452;-54
2023/12/11 00:38:16;;;;;;;0.30;0.20;;;;;;;10.70;100.00;99067.28;5038410;28;20454;-54
2023/12/11 00:40:45;;;;;;;0.30;0.20;;;;;;;10.78;100.00;99065.09;5038090;28;20463;-53
2023/12/11 00:43:11;;;;;;;0.30;0.20;;;;;;;10.81;100.00;99064.94;5037961;28;20928;-54
2023/12/11 00:45:38;;;;;;;0.30;0.20;;;;;;;10.83;100.00;99063.09;5038246;28;20550;-54
2023/12/11 00:48:05;;;;;;;0.30;0.20;;;;;;;10.83;100.00;99060.41;5040566;28;20447;-54
2023/12/11 00:50:33;;;;;;;0.30;0.20;;;;;;;11.01;100.00;99055.97;5048519;28;20500;-54
2023/12/11 00:53:00;;;;;;;0.30;0.20;;;;;;;10.97;100.00;99065.91;5024454;28;20483;-54
2023/12/11 00:55:26;;;;;;;0.30;0.20;;;;;;;10.95;100.00;99061.59;5028505;28;20445;-54
2023/12/11 00:57:53;;;;;;;0.30;0.20;;;;;;;11.01;100.00;99057.78;5033367;28;20464;-54
2023/12/11 01:00:20;;;;;;;0.30;0.20;;;;;;;11.00;100.00;99064.91;5037345;28;20840;-54
2023/12/11 01:02:46;;;;;;;0.30;0.20;;;;;;;10.96;100.00;99061.53;5037710;28;20459;-54
2023/12/11 01:05:13;;;;;;;0.30;0.20;;;;;;;11.00;100.00;99066.69;5038714;28;20498;-54
2023/12/11 01:07:40;;;;;;;0.30;0.20;;;;;;;11.10;100.00;99052.88;5037286;28;20455;-54
2023/12/11 01:10:07;;;;;;;0.30;0.20;;;;;;;11.04;99.74;99061.13;5036963;28;20475;-54
2023/12/11 01:12:35;;;;;;;0.30;0.20;;;;;;;11.11;99.80;99056.38;5023663;28;21058;-54
2023/12/11 01:15:02;;;;;;;0.30;0.20;;;;;;;11.02;100.00;99068.34;5038167;28;20867;-54
2023/12/11 01:17:29;;;;;;;0.30;0.20;;;;;;;11.25;99.11;99068.03;5037301;28;20487;-54
2023/12/11 01:20:06;;;;;;;0.30;0.20;;;;;;;10.97;99.91;99068.56;5037150;28;21070;-54
2023/12/11 01:22:33;;;;;;;0.30;0.20;;;;;;;10.94;100.00;99068.69;5032784;28;20484;-54
2023/12/11 01:25:02;;;;;;;0.30;0.20;;;;;;;11.00;100.00;99070.22;5033585;28;20535;-54
2023/12/11 01:27:29;;;;;;;0.30;0.20;;;;;;;10.90;100.00;99063.63;5037585;28;20463;-54
2023/12/11 01:29:56;;;;;;;0.30;0.20;;;;;;;10.79;100.00;99069.47;5030721;28;20480;-54
2023/12/11 01:32:23;;;;;;;0.30;0.20;;;;;;;10.86;100.00;99065.59;5037492;28;20530;-54
2023/12/11 01:34:49;;;;;;;0.30;0.20;;;;;;;10.76;100.00;99069.63;5037955;28;20538;-54
2023/12/11 01:37:17;;;;;;;0.30;0.20;;;;;;;10.74;100.00;99070.63;5038170;28;20483;-54
2023/12/11 01:39:44;;;;;;;0.30;0.20;;;;;;;10.77;100.00;99059.84;5025060;28;20472;-54
2023/12/11 01:42:10;;;;;;;0.30;0.20;;;;;;;10.81;100.00;99067.59;5024933;28;20492;-54
2023/12/11 01:44:37;;;;;;;0.30;0.20;;;;;;;10.86;100.00;99065.59;5031069;28;20484;-54
2023/12/11 01:47:05;;;;;;;0.30;0.20;;;;;;;10.94;99.88;99066.03;5025223;28;20857;-54
2023/12/11 01:49:32;;;;;;;0.30;0.20;;;;;;;10.92;99.55;99064.41;5037509;28;20452;-54
2023/12/11 01:51:59;;;;;;;0.30;0.20;;;;;;;10.86;99.28;99062.06;5027816;28;20514;-54
2023/12/11 01:54:26;;;;;;;0.30;0.20;;;;;;;10.81;99.61;99064.06;5037034;28;20857;-54
2023/12/11 01:56:53;;;;;;;0.30;0.20;;;;;;;10.85;99.13;99063.00;5035510;28;20483;-54
2023/12/11 01:59:19;;;;;;;0.30;0.20;;;;;;;10.81;99.33;99064.06;5030897;28;20455;-54
2023/12/11 02:01:46;;;;;;;0.30;0.20;;;;;;;10.92;98.30;99059.09;5015252;28;20423;-54
2023/12/11 02:04:13;;;;;;;0.30;0.20;;;;;;;10.96;98.59;99063.31;5029010;28;20422;-54
2023/12/11 02:06:39;;;;;;;0.30;0.20;;;;;;;10.98;98.09;99069.44;5025905;28;20812;-54
2023/12/11 02:09:06;;;;;;;0.30;0.20;;;;;;;11.07;97.68;99073.41;5028035;28;20459;-54
2023/12/11 02:11:33;;;;;;;0.30;0.20;;;;;;;11.00;97.87;99075.53;5032881;28;20549;-54
2023/12/11 02:13:59;;;;;;;0.30;0.20;;;;;;;10.95;97.69;99078.41;5033565;28;20444;-54
2023/12/11 02:16:25;;;;;;;0.30;0.20;;;;;;;11.05;97.44;99070.84;5033805;28;20534;-54
2023/12/11 02:18:52;;;;;;;0.30;0.20;;;;;;;11.07;96.96;99066.28;5032560;28;20444;-54
2023/12/11 02:21:19;;;;;;;0.30;0.20;;;;;;;10.95;97.20;99059.78;5032776;28;20496;-54
2023/12/11 02:23:56;;;;;;;0.30;0.20;;;;;;;10.86;97.68;99052.28;5030895;28;20808;-54
2023/12/11 02:26:22;;;;;;;0.30;0.20;;;;;;;10.89;97.57;99056.59;5023474;28;20517;-54
2023/12/11 02:28:49;;;;;;;0.30;0.20;;;;;;;10.71;98.20;99052.19;5019756;28;20455;-54
2023/12/11 02:31:15;;;;;;;0.30;0.20;;;;;;;10.78;98.41;99050.94;5022612;28;20556;-54
2023/12/11 02:33:42;;;;;;;0.30;0.20;;;;;;;10.70;98.84;99053.13;5028369;28;20452;-54
2023/12/11 02:36:09;;;;;;;0.30;0.20;;;;;;;10.69;99.14;99049.59;5012697;28;20452;-54
2023/12/11 02:38:35;;;;;;;0.30;0.20;;;;;;;10.74;98.92;99062.66;5030373;28;20456;-54
2023/12/11 02:41:02;;;;;;;0.30;0.20;;;;;;;10.75;99.42;99057.28;5033088;28;20503;-54
2023/12/11 02:43:29;;;;;;;0.30;0.20;;;;;;;10.70;99.22;99061.09;5032694;28;20498;-54
2023/12/11 02:45:55;;;;;;;0.30;0.20;;;;;;;10.71;99.52;99063.69;5032275;28;20980;-54
2023/12/11 02:48:22;;;;;;;0.30;0.20;;;;;;;10.71;98.98;99055.72;5020712;28;20448;-54
2023/12/11 02:50:49;;;;;;;0.30;0.20;;;;;;;10.75;98.30;99049.28;5020529;28;20529;-54
2023/12/11 02:53:15;;;;;;;0.30;0.20;;;;;;;10.79;98.86;99057.97;5030317;28;20964;-54
2023/12/11 02:55:42;;;;;;;0.30;0.20;;;;;;;10.84;98.83;99058.63;5032133;28;20901;-54
2023/12/11 02:58:08;;;;;;;0.30;0.20;;;;;;;10.75;99.71;99051.09;5032019;28;20456;-54
2023/12/11 03:00:35;;;;;;;0.30;0.20;;;;;;;10.90;98.77;99045.00;5031780;28;20992;-54
2023/12/11 03:03:03;;;;;;;0.30;0.20;;;;;;;10.81;98.83;99051.63;5017813;28;21004;-54
2023/12/11 03:05:29;;;;;;;0.30;0.20;;;;;;;10.68;99.14;99040.75;5031718;28;20954;-54
2023/12/11 03:07:56;;;;;;;0.30;0.20;;;;;;;10.63;99.34;99041.91;5031834;28;20430;-54
2023/12/11 03:10:23;;;;;;;0.30;0.20;;;;;;;10.63;98.72;99045.44;5019309;28;20548;-54
2023/12/11 03:12:49;;;;;;;0.30;0.20;;;;;;;10.75;98.25;99041.31;5026932;28;21009;-54
2023/12/11 03:15:16;;;;;;;0.30;0.20;;;;;;;10.59;98.66;99035.03;5031278;28;20484;-54
2023/12/11 03:17:42;;;;;;;0.30;0.20;;;;;;;10.79;97.43;99028.72;5032320;28;20834;-54
2023/12/11 03:20:11;;;;;;;0.30;0.20;;;;;;;10.57;98.31;99035.13;5032303;28;20472;-54
2023/12/11 03:22:38;;;;;;;0.30;0.20;;;;;;;10.48;98.10;99037.34;5032749;28;20458;-54
2023/12/11 03:25:04;;;;;;;0.30;0.20;;;;;;;10.63;97.29;99033.94;5032378;28;20455;-54
2023/12/11 03:27:31;;;;;;;0.30;0.20;;;;;;;10.66;97.31;99032.00;5023343;28;20460;-54
2023/12/11 03:29:58;;;;;;;0.30;0.20;;;;;;;10.63;97.05;99016.22;5019431;28;20447;-54
2023/12/11 03:32:25;;;;;;;0.30;0.20;;;;;;;10.76;96.73;99013.81;5012228;28;20972;-54
2023/12/11 03:34:51;;;;;;;0.30;0.20;;;;;;;10.77;96.14;99018.19;5012921;28;20448;-54
2023/12/11 03:37:18;;;;;;;0.30;0.20;;;;;;;10.81;95.98;99009.09;5017835;28;20547;-54
2023/12/11 03:39:44;;;;;;;0.30;0.20;;;;;;;10.82;95.53;99009.97;5008995;28;20457;-54
2023/12/11 03:42:11;;;;;;;0.30;0.20;;;;;;;10.88;95.65;99017.66;5030968;28;20454;-54
2023/12/11 03:44:38;;;;;;;0.30;0.20;;;;;;;10.88;95.18;99017.66;5020536;28;20549;-54
2023/12/11 03:47:04;;;;;;;0.30;0.20;;;;;;;10.93;95.08;99012.94;5021110;28;20456;-54
2023/12/11 03:49:31;;;;;;;0.30;0.20;;;;;;;10.89;95.63;99019.38;5035043;28;20521;-54
2023/12/11 03:51:57;;;;;;;0.30;0.20;;;;;;;11.06;95.70;99029.16;5021650;28;20525;-53
2023/12/11 03:54:24;;;;;;;0.30;0.20;;;;;;;10.98;95.65;99018.91;5034653;28;20482;-54
2023/12/11 03:56:50;;;;;;;0.30;0.20;;;;;;;11.09;95.81;99019.19;5034987;28;20462;-53
2023/12/11 03:59:17;;;;;;;0.30;0.20;;;;;;;11.04;95.58;99020.38;5021344;28;20955;-54
2023/12/11 04:01:44;;;;;;;0.30;0.20;;;;;;;11.06;95.50;99023.81;5027179;28;20437;-54
2023/12/11 04:04:11;;;;;;;0.30;0.20;;;;;;;11.07;95.49;99022.88;5028964;28;20457;-53
2023/12/11 04:06:38;;;;;;;0.30;0.20;;;;;;;11.12;96.09;99024.38;5034171;28;20879;-53
2023/12/11 04:09:04;;;;;;;0.30;0.20;;;;;;;11.14;95.93;99025.16;5021076;28;20452;-53
2023/12/11 04:11:32;;;;;;;0.30;0.20;;;;;;;11.44;95.39;99011.22;5034777;28;20998;-53
2023/12/11 04:13:59;;;;;;;0.30;0.20;;;;;;;11.29;95.35;99018.19;5034270;28;20534;-53
2023/12/11 04:16:25;;;;;;;0.30;0.20;;;;;;;11.38;95.32;99022.19;5034657;28;20531;-53
2023/12/11 04:18:52;;;;;;;0.30;0.20;;;;;;;11.34;95.79;99023.25;5034462;28;20642;-53
2023/12/11 04:21:20;;;;;;;0.30;0.20;;;;;;;11.27;96.16;99012.09;5029910;28;20472;-53
2023/12/11 04:23:47;;;;;;;0.30;0.20;;;;;;;11.28;96.59;99020.00;5034268;28;20458;-54
2023/12/11 04:26:13;;;;;;;0.30;0.20;;;;;;;11.28;96.99;99021.78;5033696;28;20949;-53
2023/12/11 04:28:40;;;;;;;0.30;0.20;;;;;;;11.24;96.84;99007.81;5020512;28;20932;-53
2023/12/11 04:31:06;;;;;;;0.30;0.20;;;;;;;11.33;96.53;98998.47;5033876;28;20504;-52
2023/12/11 04:33:37;;;;;;;0.30;0.20;;;;;;;11.36;96.04;99005.41;5033909;28;20495;-54
2023/12/11 04:36:07;;;;;;;0.30;0.20;;;;;;;11.31;96.26;99005.66;5023962;28;20464;-53
2023/12/11 04:38:33;;;;;;;0.30;0.20;;;;;;;11.40;96.01;99009.66;5018012;28;20460;-53
2023/12/11 04:41:00;;;;;;;0.30;0.20;;;;;;;11.45;96.50;99000.47;5033784;28;20467;-53
2023/12/11 04:43:26;;;;;;;0.30;0.20;;;;;;;11.49;96.36;98996.72;5033994;28;20458;-53
2023/12/11 04:45:56;;;;;;;0.30;0.20;;;;;;;11.45;96.13;99003.13;5033396;28;20864;-53
2023/12/11 04:48:23;;;;;;;0.30;0.20;;;;;;;11.34;97.12;99000.19;5009916;28;20517;-54
2023/12/11 04:50:49;;;;;;;0.30;0.20;;;;;;;11.36;96.75;98992.13;5033419;28;20476;-53
2023/12/11 04:53:16;;;;;;;0.30;0.20;;;;;;;11.31;96.62;98995.03;5033580;28;20487;-53
2023/12/11 04:55:42;;;;;;;0.30;0.20;;;;;;;11.23;96.96;98991.91;5033662;28;20543;-53
2023/12/11 04:58:09;;;;;;;0.30;0.20;;;;;;;11.31;96.80;98991.50;5028933;28;20460;-53
2023/12/11 05:00:36;;;;;;;0.30;0.20;;;;;;;11.36;96.76;98986.78;5024565;28;20498;-53
2023/12/11 05:03:03;;;;;;;0.30;0.20;;;;;;;11.28;96.90;98985.41;5002241;28;20453;-53
2023/12/11 05:05:29;;;;;;;0.30;0.20;;;;;;;11.25;96.71;98982.06;5033609;28;20431;-53
2023/12/11 05:07:56;;;;;;;0.30;0.20;;;;;;;11.21;97.14;98981.34;5033272;28;20459;-54
2023/12/11 05:10:22;;;;;;;0.30;0.20;;;;;;;11.24;97.57;98972.38;5033254;28;20471;-53
2023/12/11 05:12:49;;;;;;;0.30;0.20;;;;;;;11.17;97.66;98984.25;5029100;28;20532;-53
2023/12/11 05:15:16;;;;;;;0.30;0.20;;;;;;;11.10;97.77;98964.22;5033397;28;20429;-54
2023/12/11 05:17:42;;;;;;;0.30;0.20;;;;;;;11.15;98.17;98972.84;5033335;28;20536;-53
2023/12/11 05:20:10;;;;;;;0.30;0.20;;;;;;;11.01;98.31;98965.56;5032672;28;20454;-54
2023/12/11 05:22:36;;;;;;;0.30;0.20;;;;;;;11.03;99.23;98968.16;5019778;28;20479;-53
2023/12/11 05:25:03;;;;;;;0.30;0.20;;;;;;;11.12;98.67;98960.56;5033297;28;20553;-53
2023/12/11 05:27:30;;;;;;;0.30;0.20;;;;;;;11.08;98.63;98963.44;5009125;28;20907;-53
2023/12/11 05:29:56;;;;;;;0.30;0.20;;;;;;;10.98;99.19;98963.06;5026875;28;20472;-57
2023/12/11 05:32:23;;;;;;;0.30;0.20;;;;;;;11.06;99.11;98968.84;5013695;28;20477;-58
2023/12/11 05:34:49;;;;;;;0.30;0.20;;;;;;;11.09;99.49;98959.84;5026418;28;20423;-57
2023/12/11 05:37:16;;;;;;;0.30;0.20;;;;;;;11.00;99.22;98963.84;5013841;28;20453;-58
2023/12/11 05:39:42;;;;;;;0.30;0.20;;;;;;;11.04;99.20;98964.56;5032516;28;20479;-53
2023/12/11 05:42:23;;;;;;;0.30;0.20;;;;;;;11.11;98.85;98958.00;5022648;28;20542;-53
2023/12/11 05:44:49;;;;;;;0.30;0.20;;;;;;;11.04;98.47;98969.88;5031099;28;20477;-53
2023/12/11 05:47:16;;;;;;;0.30;0.20;;;;;;;11.02;98.86;98963.78;5022319;28;20448;-53
2023/12/11 05:49:42;;;;;;;0.30;0.20;;;;;;;11.04;99.04;98970.72;5032255;28;20452;-53
2023/12/11 05:52:09;;;;;;;0.30;0.20;;;;;;;11.02;98.74;98964.63;5032443;28;20495;-53
2023/12/11 05:54:36;;;;;;;0.30;0.20;;;;;;;11.05;98.65;98961.81;5032398;28;20491;-53
2023/12/11 05:57:02;;;;;;;0.30;0.20;;;;;;;11.12;98.37;98962.38;5030956;28;20470;-53
2023/12/11 05:59:29;;;;;;;0.30;0.20;;;;;;;11.16;98.44;98955.94;5018725;28;20460;-53
2023/12/11 06:01:56;;;;;;;0.30;0.20;;;;;;;11.24;98.09;98959.94;5022320;28;20507;-53
2023/12/11 06:04:23;;;;;;;0.30;0.20;;;;;;;11.24;98.33;98956.41;5028789;28;20455;-53
2023/12/11 06:06:50;;;;;;;0.30;0.20;;;;;;;11.26;98.08;98951.84;5031695;28;20448;-53
2023/12/11 06:09:16;;;;;;;0.30;0.20;;;;;;;11.18;98.23;98954.06;5032086;28;20433;-52
2023/12/11 06:11:43;;;;;;;0.30;0.20;;;;;;;11.28;97.76;98948.16;5031967;28;20466;-53
2023/12/11 06:14:10;;;;;;;0.30;0.20;;;;;;;11.37;97.78;98935.31;5031275;28;20865;-53
2023/12/11 06:16:36;;;;;;;0.30;0.20;;;;;;;11.21;98.26;98949.41;5025469;28;20426;-53
2023/12/11 06:19:03;;;;;;;0.30;0.20;;;;;;;11.32;97.17;98946.19;5018812;28;20894;-53
2023/12/11 06:21:30;;;;;;;0.30;0.20;;;;;;;11.23;97.18;98936.03;5009951;28;20458;-52
2023/12/11 06:23:56;;;;;;;0.30;0.20;;;;;;;11.20;97.27;98933.53;5023971;28;20555;-52
2023/12/11 06:26:29;;;;;;;0.30;0.20;;;;;;;11.25;96.89;98928.88;5026287;28;20483;-53
2023/12/11 06:28:59;;;;;;;0.30;0.20;;;;;;;11.30;96.61;98924.16;5023780;28;20975;-53
2023/12/11 06:31:29;;;;;;;0.30;0.20;;;;;;;11.19;96.59;98934.50;5031932;28;20471;-53
2023/12/11 06:33:56;;;;;;;0.30;0.20;;;;;;;11.32;96.08;98934.69;5020171;28;20512;-52
2023/12/11 06:36:25;;;;;;;0.30;0.20;;;;;;;11.19;95.86;98931.84;5031952;28;20892;-52
2023/12/11 06:38:51;;;;;;;0.30;0.20;;;;;;;11.36;95.90;98939.75;5031077;28;21000;-52
2023/12/11 06:41:18;;;;;;;0.30;0.20;;;;;;;11.30;95.46;98941.91;5029640;28;21139;-53
2023/12/11 06:43:52;;;;;;;0.30;0.20;;;;;;;11.26;95.45;98949.19;5023006;28;20427;-53
2023/12/11 06:46:19;;;;;;;0.30;0.20;;;;;;;11.21;95.99;98945.91;5020307;28;20487;-53
2023/12/11 06:48:45;;;;;;;0.30;0.20;;;;;;;11.46;95.23;98941.00;5027491;28;20459;-53
2023/12/11 06:51:15;;;;;;;0.30;0.20;;;;;;;11.62;94.28;98948.16;5031037;28;20487;-53
2023/12/11 06:53:42;;;;;;;0.30;0.20;;;;;;;11.52;93.98;98943.34;5031713;28;20492;-53
2023/12/11 06:56:08;;;;;;;0.30;0.20;;;;;;;11.67;93.34;98954.97;5031502;28;20459;-53
2023/12/11 06:58:35;;;;;;;0.30;0.20;;;;;;;11.59;93.73;98954.50;5022317;28;20555;-53
2023/12/11 07:01:01;;;;;;;0.30;0.20;;;;;;;11.61;93.62;98947.28;5027387;28;20559;-53
2023/12/11 07:03:29;;;;;;;0.30;0.20;;;;;;;11.62;92.90;98953.47;5014139;28;20530;-54
2023/12/11 07:05:55;;;;;;;0.30;0.20;;;;;;;11.74;92.47;98947.47;5031438;28;20816;-53
2023/12/11 07:08:22;;;;;;;0.30;0.20;;;;;;;11.77;92.07;98948.16;5031550;28;20451;-53
2023/12/11 07:10:49;;;;;;;0.30;0.20;;;;;;;11.81;91.16;98954.25;5031155;28;20558;-54
2023/12/11 07:13:16;;;;;;;0.30;0.20;;;;;;;11.90;91.40;98953.72;5031307;28;20923;-53
2023/12/11 07:15:42;;;;;;;0.30;0.20;;;;;;;11.88;90.56;98957.41;5031472;28;20810;-53
2023/12/11 07:18:11;;;;;;;0.30;0.20;;;;;;;11.93;90.65;98963.34;5033008;28;20455;-53
2023/12/11 07:20:38;;;;;;;0.30;0.20;;;;;;;11.98;90.07;98948.81;5032087;28;20472;-54
2023/12/11 07:23:05;;;;;;;0.30;0.20;;;;;;;12.02;89.45;98955.69;5025329;28;20443;-52
2023/12/11 07:25:32;;;;;;;0.30;0.20;;;;;;;11.94;89.35;98946.44;5035276;28;20521;-53
2023/12/11 07:27:59;;;;;;;0.30;0.20;;;;;;;11.93;90.60;98953.56;5024624;28;20458;-53
2023/12/11 07:30:27;;;;;;;0.30;0.20;;;;;;;12.03;89.89;98953.88;5032399;28;20479;-53
2023/12/11 07:32:53;;;;;;;0.30;0.20;;;;;;;11.95;90.18;98954.34;5035067;28;20593;-53
2023/12/11 07:35:20;;;;;;;0.30;0.20;;;;;;;11.97;90.10;98947.09;5035392;28;20456;-53
2023/12/11 07:37:46;;;;;;;0.30;0.20;;;;;;;12.01;89.21;98953.97;5035364;28;20455;-53
2023/12/11 07:40:13;;;;;;;0.30;0.20;;;;;;;11.94;89.66;98951.75;5034845;28;20466;-53
2023/12/11 07:42:40;;;;;;;0.30;0.20;;;;;;;12.01;89.20;98959.31;5035261;28;20448;-53
2023/12/11 07:45:07;;;;;;;0.30;0.20;;;;;;;12.04;89.85;98950.28;5035131;28;20458;-53
2023/12/11 07:47:34;;;;;;;0.30;0.20;;;;;;;12.22;88.93;98951.06;5034991;28;21016;-53
2023/12/11 07:50:02;;;;;;;0.30;0.20;;;;;;;12.20;88.77;98944.94;5034733;28;20519;-53
2023/12/11 07:52:30;;;;;;;0.30;0.20;;;;;;;12.05;88.88;98933.34;5034876;28;20577;-55
2023/12/11 07:54:58;;;;;;;0.30;0.20;;;;;;;12.19;89.02;98938.75;5035085;28;20502;-53
2023/12/11 07:57:26;;;;;;;0.30;0.20;;;;;;;12.34;88.25;98945.91;5034927;28;20430;-53
2023/12/11 07:59:53;;;;;;;0.30;0.20;;;;;;;12.17;88.20;98951.31;5003969;28;20955;-53
2023/12/11 08:02:19;;;;;;;0.30;0.20;;;;;;;12.15;87.38;98954.06;5034785;28;20501;-53
2023/12/11 08:04:46;;;;;;;0.30;0.20;;;;;;;12.28;87.31;98950.69;5034600;28;20444;-53
2023/12/11 08:07:14;;;;;;;0.30;0.20;;;;;;;12.32;86.91;98952.22;5034458;28;20451;-54
2023/12/11 08:09:40;;;;;;;0.30;0.20;;;;;;;12.26;87.81;98955.25;5034736;28;20468;-53
2023/12/11 08:12:07;;;;;;;0.30;0.20;;;;;;;12.25;86.96;98966.88;5034561;28;20483;-53
2023/12/11 08:14:34;;;;;;;0.30;0.20;;;;;;;12.33;87.56;98960.13;5034499;28;20487;-53
2023/12/11 08:17:04;;;;;;;0.30;0.20;;;;;;;12.38;87.50;98958.09;5034511;28;20444;-53
2023/12/11 08:19:32;;;;;;;0.30;0.20;;;;;;;12.36;87.22;98956.47;5034345;28;20455;-53
2023/12/11 08:21:59;;;;;;;0.30;0.20;;;;;;;12.51;86.71;98947.59;5020913;28;20431;-54
2023/12/11 08:24:26;;;;;;;0.30;0.20;;;;;;;12.47;85.71;98956.69;5034636;28;20447;-53
2023/12/11 08:26:53;;;;;;;0.30;0.20;;;;;;;12.45;85.16;98959.44;5033142;28;20557;-55
2023/12/11 08:29:23;;;;;;;0.30;0.20;;;;;;;12.55;83.63;98964.25;5021699;28;20550;-53
2023/12/11 08:31:50;;;;;;;0.30;0.20;;;;;;;12.51;83.54;98960.91;5034421;28;20462;-53
2023/12/11 08:34:18;;;;;;;0.30;0.20;;;;;;;12.52;82.18;98949.28;5032832;28;21004;-54
2023/12/11 08:36:45;;;;;;;0.30;0.20;;;;;;;12.66;81.67;98957.34;5033847;28;20490;-53
2023/12/11 08:39:12;;;;;;;0.30;0.20;;;;;;;12.73;81.13;98958.69;5034378;28;20538;-53
2023/12/11 08:41:38;;;;;;;0.30;0.20;;;;;;;12.60;81.80;98960.34;5034043;28;20480;-54
2023/12/11 08:44:05;;;;;;;0.30;0.20;;;;;;;12.61;81.85;98951.44;5034438;28;20543;-53
2023/12/11 08:46:32;;;;;;;0.30;0.20;;;;;;;12.75;80.75;98959.47;5033793;28;20482;-54
2023/12/11 08:48:59;;;;;;;0.30;0.20;;;;;;;12.69;81.22;98958.97;5033762;28;20483;-54
2023/12/11 08:51:25;;;;;;;0.30;0.20;;;;;;;12.83;81.11;98959.00;5033510;28;20897;-57
2023/12/11 08:53:52;;;;;;;0.30;0.20;;;;;;;12.60;81.74;98952.34;5033897;28;20923;-54
2023/12/11 08:56:20;;;;;;;0.30;0.20;;;;;;;12.66;81.19;98954.69;5033644;28;20534;-54
2023/12/11 08:58:46;;;;;;;0.30;0.20;;;;;;;12.52;82.10;98951.97;5023645;28;21009;-53
2023/12/11 09:01:13;;;;;;;0.30;0.20;;;;;;;12.54;81.60;98949.19;5030504;28;20475;-54
2023/12/11 09:03:40;;;;;;;0.30;0.20;;;;;;;12.65;81.56;98955.63;5033294;28;20509;-54
2023/12/11 09:06:07;;;;;;;0.30;0.20;;;;;;;12.85;81.70;98956.25;5033604;28;20451;-54
2023/12/11 09:08:33;;;;;;;0.30;0.20;;;;;;;12.80;81.20;98953.00;5033662;28;20460;-55
2023/12/11 09:11:00;;;;;;;0.30;0.20;;;;;;;12.98;80.96;98970.56;5033477;28;20545;-54
2023/12/11 09:13:27;;;;;;;0.30;0.20;;;;;;;12.81;81.31;98958.25;5033409;28;20570;-54
2023/12/11 09:15:55;;;;;;;0.30;0.20;;;;;;;12.82;80.41;98965.28;5033358;28;20457;-53
2023/12/11 09:18:22;;;;;;;0.30;0.20;;;;;;;12.71;80.97;98965.91;5015608;28;21020;-53
2023/12/11 09:20:48;;;;;;;0.30;0.20;;;;;;;12.75;81.97;98970.16;5028827;28;20476;-54
2023/12/11 09:23:15;;;;;;;0.30;0.20;;;;;;;12.66;81.25;98962.69;5024748;28;20517;-53
2023/12/11 09:25:42;;;;;;;0.30;0.20;;;;;;;12.64;81.72;98969.91;5031656;28;20990;-53
2023/12/11 09:28:08;;;;;;;0.30;0.20;;;;;;;12.65;81.73;98963.63;5021665;28;20467;-54
2023/12/11 09:30:35;;;;;;;0.30;0.20;;;;;;;12.82;81.01;98967.09;5031271;28;20883;-53
2023/12/11 09:33:02;;;;;;;0.30;0.20;;;;;;;12.95;81.20;98970.78;5033053;28;20469;-54
2023/12/11 09:35:28;;;;;;;0.30;0.20;;;;;;;12.93;81.32;98970.00;5032902;28;20464;-53
2023/12/11 09:37:55;;;;;;;0.30;0.20;;;;;;;13.04;81.45;98980.91;5032916;28;20837;-54
2023/12/11 09:40:22;;;;;;;0.30;0.20;;;;;;;13.15;80.46;98980.22;5032513;28;20529;-53
2023/12/11 09:42:51;;;;;;;0.30;0.20;;;;;;;13.29;80.24;98986.50;5032834;28;20433;-54
2023/12/11 09:45:19;;;;;;;0.30;0.20;;;;;;;13.42;79.73;98980.41;5032715;28;20451;-54
2023/12/11 09:47:53;;;;;;;0.30;0.20;;;;;;;13.59;79.02;98989.13;5032712;28;20452;-54
2023/12/11 09:50:37;;;;;;;0.30;0.20;;;;;;;13.50;79.12;98991.47;5023670;28;20485;-53
2023/12/11 09:53:04;;;;;;;0.30;0.20;;;;;;;13.43;78.82;98987.44;5029356;28;21056;-54
2023/12/11 09:55:30;;;;;;;0.30;0.20;;;;;;;13.63;78.48;98987.97;5032671;28;20535;-54
2023/12/11 09:57:58;;;;;;;0.30;0.20;;;;;;;13.60;79.15;98981.97;5029405;28;21003;-53
2023/12/11 10:00:25;;;;;;;0.30;0.30;;;;;;;13.72;78.63;98986.53;5022804;28;20529;-54
2023/12/11 10:02:53;;;;;;;0.30;0.20;;;;;;;13.54;77.98;98987.66;5032352;28;20538;-54
2023/12/11 10:05:24;;;;;;;0.30;0.20;;;;;;;13.72;78.24;98985.69;5032469;28;20431;-54
2023/12/11 10:07:51;;;;;;;0.30;0.20;;;;;;;13.74;77.68;98983.78;5032391;28;20445;-53
2023/12/11 10:10:30;;;;;;;0.30;0.20;;;;;;;13.69;77.66;98986.72;5032183;28;20525;-54
2023/12/11 10:12:57;;;;;;;0.30;0.20;;;;;;;13.77;77.18;98981.75;5032238;28;20454;-53
2023/12/11 10:15:26;;;;;;;0.30;0.20;;;;;;;13.99;76.87;98986.63;5032434;28;20497;-54
2023/12/11 10:18:19;;;;;;;0.30;0.20;;;;;;;14.09;77.22;99002.91;5012472;28;20909;-54
2023/12/11 10:20:53;;;;;;;0.30;0.20;;;;;;;14.11;77.24;98982.28;5022948;28;20960;-54
2023/12/11 10:23:23;;;;;;;0.30;0.20;;;;;;;13.94;77.42;98992.22;5024425;28;20531;-54
2023/12/11 10:25:52;;;;;;;0.30;0.20;;;;;;;13.90;77.08;98985.38;5032428;28;20422;-54
2023/12/11 10:28:22;;;;;;;0.30;0.20;;;;;;;13.95;76.97;98987.75;5029461;28;20550;-54
2023/12/11 10:30:51;;;;;;;0.30;0.20;;;;;;;14.10;76.83;98984.09;5024455;28;20480;-54
2023/12/11 10:33:19;;;;;;;0.30;0.20;;;;;;;14.33;76.17;98989.78;5029840;28;20491;-54
2023/12/11 10:35:46;;;;;;;0.30;0.20;;;;;;;14.34;76.06;98996.84;5031294;28;20460;-54
2023/12/11 10:38:24;;;;;;;0.30;0.20;;;;;;;14.33;75.00;98998.66;5031472;28;20863;-54
2023/12/11 10:40:51;;;;;;;0.30;0.20;;;;;;;14.24;75.50;99001.91;5005604;28;20475;-54
2023/12/11 10:43:18;;;;;;;0.30;0.20;;;;;;;14.27;75.59;99022.28;5025213;28;21192;-54
2023/12/11 10:45:46;;;;;;;0.30;0.20;;;;;;;14.22;74.45;99001.16;5020536;28;20490;-54
2023/12/11 10:48:17;;;;;;;0.30;0.20;;;;;;;14.23;75.47;98997.53;5031663;28;20478;-56
2023/12/11 10:50:45;;;;;;;0.30;0.20;;;;;;;14.24;73.94;98993.91;5021899;28;20484;-54
2023/12/11 10:53:12;;;;;;;0.30;0.20;;;;;;;14.14;73.79;98999.00;5024829;28;20524;-54
2023/12/11 10:55:38;;;;;;;0.30;0.20;;;;;;;14.14;73.99;99000.81;5029734;28;20509;-54
2023/12/11 10:58:08;;;;;;;0.30;0.20;;;;;;;14.12;73.15;99005.41;5031552;28;20892;-54
2023/12/11 11:00:37;;;;;;;0.30;0.20;;;;;;;14.14;72.91;99009.69;5031923;28;20496;-54
2023/12/11 11:03:07;;;;;;;0.30;0.20;;;;;;;13.99;74.06;99015.16;5032058;28;20437;-54
2023/12/11 11:05:34;;;;;;;0.30;0.20;;;;;;;14.01;74.00;99014.09;5030494;28;20829;-55
2023/12/11 11:08:14;;;;;;;0.53;0.53;;;;;;;13.98;73.25;99016.06;5018245;28;20458;-54
2023/12/11 11:10:59;;;;;;;0.30;0.20;;;;;;;13.93;72.66;99019.91;5017403;28;20454;-55
2023/12/11 11:13:32;;;;;;;0.30;0.20;;;;;;;14.01;72.62;99035.47;5030771;28;20493;-54
2023/12/11 11:15:59;;;;;;;0.30;0.20;;;;;;;13.98;72.33;99029.44;5018417;28;20455;-54
2023/12/11 11:18:26;;;;;;;0.30;0.20;;;;;;;13.99;72.96;99028.50;5031708;28;20488;-54
2023/12/11 11:21:12;;;;;;;0.30;0.20;;;;;;;14.07;73.01;99023.53;5026469;28;20813;-54
2023/12/11 11:23:45;;;;;;;0.30;0.20;;;;;;;14.16;72.81;99029.16;5026460;28;20455;-54
2023/12/11 11:26:35;;;;;;;0.30;0.20;;;;;;;13.96;73.17;99021.53;5008362;28;20463;-54
2023/12/11 11:29:05;;;;;;;0.30;0.20;;;;;;;14.01;72.96;99021.25;5025735;28;20547;-54
2023/12/11 11:31:51;;;;;;;0.30;0.20;;;;;;;14.22;72.10;99027.88;5026155;28;20468;-53
2023/12/11 11:34:40;;;;;;;0.30;0.20;;;;;;;14.13;69.58;99025.81;5018687;28;20993;-54